createdAt,value
2023-05-02T00:02:26.885Z,98328.66
2023-05-02T00:04:54.138Z,98332.38
2023-05-02T00:07:21.818Z,98321.34
2023-05-02T00:09:49.084Z,98327.53
2023-05-02T00:12:16.146Z,98308.50
2023-05-02T00:14:43.255Z,98332.22
2023-05-02T00:17:17.753Z,98333.91
2023-05-02T00:19:44.965Z,98335.78
2023-05-02T00:22:12.081Z,98337.50
2023-05-02T00:24:39.345Z,98339.19
2023-05-02T00:27:07.312Z,98332.03
2023-05-02T00:29:34.553Z,98335.94
2023-05-02T00:32:02.024Z,98333.78
2023-05-02T00:34:32.213Z,98334.06
2023-05-02T00:36:59.900Z,98341.81
2023-05-02T00:39:29.289Z,98339.47
2023-05-02T00:41:59.774Z,98337.38
2023-05-02T00:44:27.270Z,98324.56
2023-05-02T00:46:57.240Z,98338.84
2023-05-02T00:49:24.470Z,98344.91
2023-05-02T00:51:52.180Z,98341.97
2023-05-02T00:54:19.595Z,98341.81
2023-05-02T00:56:48.177Z,98342.25
2023-05-02T00:59:16.197Z,98339.69
2023-05-02T01:02:10.901Z,98340.66
2023-05-02T01:04:50.189Z,98339.53
2023-05-02T01:07:23.275Z,98333.13
2023-05-02T01:10:22.721Z,98335.09
2023-05-02T01:13:14.359Z,98338.66
2023-05-02T01:15:43.880Z,98333.50
2023-05-02T01:18:13.986Z,98351.59
2023-05-02T01:20:44.102Z,98342.19
2023-05-02T01:23:39.266Z,98347.28
2023-05-02T01:26:30.215Z,98342.47
2023-05-02T01:29:04.192Z,98353.13
2023-05-02T01:31:38.347Z,98353.06
2023-05-02T01:34:10.578Z,98346.91
2023-05-02T01:36:43.654Z,98357.44
2023-05-02T01:39:13.803Z,98357.06
2023-05-02T01:41:42.257Z,98356.03
2023-05-02T01:44:11.539Z,98358.44
2023-05-02T01:46:43.054Z,98359.75
2023-05-02T01:49:11.304Z,98367.53
2023-05-02T01:51:46.607Z,98352.81
2023-05-02T01:54:17.554Z,98341.63
2023-05-02T01:56:47.356Z,98354.78
2023-05-02T01:59:24.459Z,98355.91
2023-05-02T02:01:54.071Z,98367.34
2023-05-02T02:04:24.086Z,98369.25
2023-05-02T02:07:01.518Z,98352.34
2023-05-02T02:09:28.812Z,98355.75
2023-05-02T02:12:07.119Z,98338.47
2023-05-02T02:14:37.746Z,98360.13
2023-05-02T02:17:22.594Z,98357.94
2023-05-02T02:19:54.919Z,98349.84
2023-05-02T02:22:27.023Z,98355.25
2023-05-02T02:24:55.251Z,98344.19
2023-05-02T02:27:22.572Z,98352.88
2023-05-02T02:29:49.914Z,98348.50
2023-05-02T02:32:16.958Z,98347.22
2023-05-02T02:34:44.167Z,98352.94
2023-05-02T02:37:20.490Z,98351.81
2023-05-02T02:39:50.909Z,98358.88
2023-05-02T02:42:56.427Z,98351.75
2023-05-02T02:45:34.369Z,98358.28
2023-05-02T02:48:28.266Z,98359.38
2023-05-02T02:51:07.928Z,98350.00
2023-05-02T02:53:55.439Z,98345.50
2023-05-02T02:56:46.113Z,98360.78
2023-05-02T02:59:20.900Z,98338.84
2023-05-02T03:01:57.858Z,98354.22
2023-05-02T03:04:26.717Z,98357.22
2023-05-02T03:06:54.584Z,98353.06
2023-05-02T03:09:21.761Z,98352.28
2023-05-02T03:11:50.839Z,98356.28
2023-05-02T03:14:18.547Z,98360.75
2023-05-02T03:16:46.683Z,98362.50
2023-05-02T03:19:15.664Z,98365.09
2023-05-02T03:21:43.760Z,98360.50
2023-05-02T03:24:19.297Z,98355.94
2023-05-02T03:26:48.543Z,98370.38
2023-05-02T03:29:19.964Z,98362.06
2023-05-02T03:31:48.215Z,98366.56
2023-05-02T03:34:15.523Z,98367.06
2023-05-02T03:36:45.538Z,98353.72
2023-05-02T03:39:12.654Z,98366.03
2023-05-02T03:41:40.525Z,98376.16
2023-05-02T03:44:10.269Z,98378.53
2023-05-02T03:46:37.936Z,98367.22
2023-05-02T03:49:08.867Z,98379.44
2023-05-02T03:51:36.306Z,98370.03
2023-05-02T03:54:04.481Z,98374.63
2023-05-02T03:56:32.829Z,98377.28
2023-05-02T03:59:24.267Z,98376.03
2023-05-02T04:01:52.148Z,98384.34
2023-05-02T04:04:24.099Z,98386.22
2023-05-02T04:06:53.917Z,98381.16
2023-05-02T04:09:25.619Z,98383.41
2023-05-02T04:12:01.738Z,98377.53
2023-05-02T04:14:30.217Z,98384.97
2023-05-02T04:16:58.035Z,98389.50
2023-05-02T04:19:35.578Z,98384.56
2023-05-02T04:22:03.974Z,98395.50
2023-05-02T04:24:34.852Z,98405.19
2023-05-02T04:27:03.198Z,98406.31
2023-05-02T04:29:30.703Z,98408.44
2023-05-02T04:31:58.288Z,98414.31
2023-05-02T04:34:28.760Z,98412.13
2023-05-02T04:36:56.125Z,98407.28
2023-05-02T04:39:25.387Z,98415.84
2023-05-02T04:42:02.784Z,98415.84
2023-05-02T04:44:34.552Z,98425.88
2023-05-02T04:47:01.748Z,98419.69
2023-05-02T04:49:28.941Z,98421.16
2023-05-02T04:51:56.435Z,98415.09
2023-05-02T04:54:24.364Z,98418.34
2023-05-02T04:56:52.297Z,98422.22
2023-05-02T04:59:20.881Z,98419.22
2023-05-02T05:01:49.420Z,98411.94
2023-05-02T05:04:16.816Z,98410.91
2023-05-02T05:06:48.720Z,98413.19
2023-05-02T05:09:16.840Z,98419.66
2023-05-02T05:11:45.737Z,98407.88
2023-05-02T05:14:14.087Z,98407.88
2023-05-02T05:16:44.327Z,98415.00
2023-05-02T05:19:12.045Z,98416.81
2023-05-02T05:21:39.525Z,98406.88
2023-05-02T05:24:07.369Z,98415.34
2023-05-02T05:26:34.464Z,98415.72
2023-05-02T05:29:02.434Z,98421.69
2023-05-02T05:31:35.600Z,98415.63
2023-05-02T05:34:03.508Z,98422.94
2023-05-02T05:36:31.771Z,98408.78
2023-05-02T05:38:58.953Z,98429.34
2023-05-02T05:41:26.079Z,98414.44
2023-05-02T05:44:00.103Z,98424.28
2023-05-02T05:46:28.911Z,98419.97
2023-05-02T05:48:56.725Z,98426.44
2023-05-02T05:51:24.630Z,98430.47
2023-05-02T05:53:52.268Z,98428.75
2023-05-02T05:56:19.521Z,98429.06
2023-05-02T05:58:57.002Z,98429.72
2023-05-02T06:01:24.228Z,98436.16
2023-05-02T06:03:52.406Z,98433.56
2023-05-02T06:06:19.792Z,98437.03
2023-05-02T06:08:47.136Z,98438.16
2023-05-02T06:11:14.642Z,98439.94
2023-05-02T06:13:41.802Z,98445.16
2023-05-02T06:16:09.128Z,98443.00
2023-05-02T06:18:36.390Z,98442.88
2023-05-02T06:21:06.850Z,98432.50
2023-05-02T06:23:34.045Z,98443.06
2023-05-02T06:26:02.543Z,98441.88
2023-05-02T06:28:30.488Z,98430.66
2023-05-02T06:31:04.542Z,98444.75
2023-05-02T06:33:33.176Z,98433.84
2023-05-02T06:36:01.639Z,98437.00
2023-05-02T06:38:30.064Z,98438.66
2023-05-02T06:40:57.295Z,98448.31
2023-05-02T06:43:24.658Z,98445.59
2023-05-02T06:45:56.584Z,98440.75
2023-05-02T06:48:23.740Z,98442.47
2023-05-02T06:50:53.907Z,98442.56
2023-05-02T06:53:21.733Z,98434.03
2023-05-02T06:55:49.603Z,98428.03
2023-05-02T06:58:17.574Z,98429.50
2023-05-02T07:00:44.712Z,98426.53
2023-05-02T07:03:12.931Z,98428.09
2023-05-02T07:05:40.365Z,98419.41
2023-05-02T07:08:07.868Z,98419.69
2023-05-02T07:10:34.994Z,98422.28
2023-05-02T07:13:02.689Z,98431.84
2023-05-02T07:15:29.825Z,98430.59
2023-05-02T07:17:57.306Z,98421.97
2023-05-02T07:20:25.229Z,98425.19
2023-05-02T07:22:52.788Z,98419.41
2023-05-02T07:25:19.916Z,98417.47
2023-05-02T07:27:48.177Z,98407.69
2023-05-02T07:30:15.293Z,98431.66
2023-05-02T07:32:43.005Z,98429.00
2023-05-02T07:35:10.653Z,98427.00
2023-05-02T07:37:38.300Z,98429.38
2023-05-02T07:40:06.276Z,98430.44
2023-05-02T07:42:34.214Z,98423.09
2023-05-02T07:45:01.648Z,98436.16
2023-05-02T07:47:29.694Z,98420.63
2023-05-02T07:49:56.864Z,98423.75
2023-05-02T07:52:24.513Z,98428.22
2023-05-02T07:54:52.384Z,98425.47
2023-05-02T07:57:19.760Z,98421.28
2023-05-02T07:59:47.149Z,98419.03
2023-05-02T08:02:15.420Z,98420.91
2023-05-02T08:04:42.525Z,98419.97
2023-05-02T08:07:09.870Z,98413.75
2023-05-02T08:09:37.123Z,98413.19
2023-05-02T08:12:04.785Z,98416.00
2023-05-02T08:14:32.293Z,98420.38
2023-05-02T08:17:00.439Z,98421.47
2023-05-02T08:19:28.273Z,98416.78
2023-05-02T08:21:56.167Z,98418.75
2023-05-02T08:24:23.466Z,98408.97
2023-05-02T08:26:51.185Z,98416.25
2023-05-02T08:29:18.468Z,98414.63
2023-05-02T08:31:46.127Z,98420.81
2023-05-02T08:34:13.339Z,98418.31
2023-05-02T08:36:40.950Z,98420.47
2023-05-02T08:39:09.795Z,98417.19
2023-05-02T08:41:38.957Z,98415.91
2023-05-02T08:44:08.407Z,98415.75
2023-05-02T08:46:37.035Z,98412.16
2023-05-02T08:49:05.258Z,98427.09
2023-05-02T08:51:34.051Z,98419.88
2023-05-02T08:54:03.639Z,98427.44
2023-05-02T08:56:31.535Z,98423.81
2023-05-02T08:58:58.717Z,98416.31
2023-05-02T09:01:34.177Z,98423.00
2023-05-02T09:04:02.786Z,98429.22
2023-05-02T09:06:30.056Z,98419.22
2023-05-02T09:09:00.654Z,98420.53
2023-05-02T09:11:28.104Z,98414.66
2023-05-02T09:13:56.339Z,98423.50
2023-05-02T09:16:25.970Z,98422.25
2023-05-02T09:18:58.144Z,98410.81
2023-05-02T09:21:27.798Z,98411.66
2023-05-02T09:24:02.032Z,98411.06
2023-05-02T09:26:32.834Z,98397.28
2023-05-02T09:29:02.373Z,98405.75
2023-05-02T09:31:54.293Z,98413.97
2023-05-02T09:34:22.971Z,98415.28
2023-05-02T09:36:54.747Z,98410.41
2023-05-02T09:39:26.872Z,98406.50
2023-05-02T09:41:54.851Z,98395.38
2023-05-02T09:44:25.188Z,98396.53
2023-05-02T09:46:54.374Z,98395.66
2023-05-02T09:49:56.643Z,98395.84
2023-05-02T09:52:23.878Z,98398.47
2023-05-02T09:54:52.705Z,98385.50
2023-05-02T09:57:20.348Z,98396.94
2023-05-02T09:59:57.807Z,98384.81
2023-05-02T10:02:26.007Z,98375.91
2023-05-02T10:04:57.262Z,98373.72
2023-05-02T10:07:26.403Z,98364.91
2023-05-02T10:09:55.421Z,98357.44
2023-05-02T10:12:26.606Z,98363.59
2023-05-02T10:15:01.526Z,98364.69
2023-05-02T10:17:34.470Z,98352.09
2023-05-02T10:20:07.790Z,98362.41
2023-05-02T10:22:35.678Z,98354.94
2023-05-02T10:25:04.220Z,98347.94
2023-05-02T10:27:32.542Z,98346.81
2023-05-02T10:30:01.426Z,98343.66
2023-05-02T10:32:32.530Z,98327.78
2023-05-02T10:35:04.930Z,98339.91
2023-05-02T10:37:36.745Z,98334.16
2023-05-02T10:40:04.463Z,98336.41
2023-05-02T10:42:35.436Z,98336.91
2023-05-02T10:45:03.831Z,98338.50
2023-05-02T10:47:32.311Z,98322.13
2023-05-02T10:50:03.903Z,98334.66
2023-05-02T10:52:33.520Z,98341.97
2023-05-02T10:55:22.499Z,98333.75
2023-05-02T10:58:22.502Z,98338.25
2023-05-02T11:00:50.089Z,98332.16
2023-05-02T11:03:56.376Z,98340.00
2023-05-02T11:06:24.764Z,98337.16
2023-05-02T11:08:52.483Z,98325.09
2023-05-02T11:11:42.904Z,98324.94
2023-05-02T11:14:12.272Z,98319.22
2023-05-02T11:16:58.289Z,98328.16
2023-05-02T11:19:27.052Z,98319.50
2023-05-02T11:22:34.403Z,98319.63
2023-05-02T11:25:02.189Z,98304.03
2023-05-02T11:27:29.498Z,98315.25
2023-05-02T11:29:58.257Z,98313.28
2023-05-02T11:32:46.102Z,98299.94
2023-05-02T11:35:24.079Z,98307.69
2023-05-02T11:38:11.145Z,98302.44
2023-05-02T11:40:38.530Z,98300.75
2023-05-02T11:43:16.906Z,98289.63
2023-05-02T11:45:44.738Z,98300.94
2023-05-02T11:48:15.062Z,98295.97
2023-05-02T11:50:53.370Z,98301.09
2023-05-02T11:56:03.697Z,98307.47
2023-05-02T11:58:34.720Z,98302.69
2023-05-02T12:01:15.683Z,98295.31
2023-05-02T12:03:43.303Z,98288.56
2023-05-02T12:06:12.797Z,98280.50
2023-05-02T12:08:41.902Z,98286.88
2023-05-02T12:11:09.575Z,98266.56
2023-05-02T12:13:46.266Z,98262.06
2023-05-02T12:16:13.518Z,98267.22
2023-05-02T12:18:41.268Z,98271.41
2023-05-02T12:21:08.918Z,98266.56
2023-05-02T12:23:37.623Z,98246.25
2023-05-02T12:26:22.436Z,98255.78
2023-05-02T12:28:55.096Z,98252.78
2023-05-02T12:31:23.277Z,98243.91
2023-05-02T12:33:51.210Z,98246.47
2023-05-02T12:36:21.967Z,98231.13
2023-05-02T12:39:04.157Z,98238.00
2023-05-02T12:41:45.175Z,98225.59
2023-05-02T12:44:12.272Z,98222.97
2023-05-02T12:46:58.746Z,98238.34
2023-05-02T12:49:26.051Z,98235.69
2023-05-02T12:51:56.600Z,98228.06
2023-05-02T12:54:24.059Z,98231.47
2023-05-02T12:56:52.498Z,98222.63
2023-05-02T12:59:30.772Z,98217.97
2023-05-02T13:01:58.741Z,98219.41
2023-05-02T13:04:42.463Z,98211.63
2023-05-02T13:07:09.664Z,98212.34
2023-05-02T13:09:37.761Z,98216.34
2023-05-02T13:12:06.675Z,98222.13
2023-05-02T13:14:33.798Z,98211.34
2023-05-02T13:17:01.791Z,98202.31
2023-05-02T13:19:32.082Z,98217.50
2023-05-02T13:21:59.662Z,98208.31
2023-05-02T13:24:26.785Z,98207.50
2023-05-02T13:26:54.622Z,98195.00
2023-05-02T13:29:21.658Z,98202.81
2023-05-02T13:31:49.222Z,98198.84
2023-05-02T13:34:16.458Z,98203.16
2023-05-02T13:36:46.626Z,98199.63
2023-05-02T13:39:14.279Z,98192.63
2023-05-02T13:41:42.057Z,98185.19
2023-05-02T13:44:09.950Z,98194.06
2023-05-02T13:46:38.148Z,98189.34
2023-05-02T13:49:06.156Z,98189.75
2023-05-02T13:51:33.550Z,98189.38
2023-05-02T13:54:01.642Z,98196.59
2023-05-02T13:56:28.947Z,98194.56
2023-05-02T13:58:56.909Z,98180.44
2023-05-02T14:01:26.906Z,98182.97
2023-05-02T14:03:54.835Z,98179.41
2023-05-02T14:06:22.414Z,98173.81
2023-05-02T14:08:51.504Z,98183.28
2023-05-02T14:11:18.549Z,98169.06
2023-05-02T14:13:46.741Z,98168.47
2023-05-02T14:16:14.211Z,98164.34
2023-05-02T14:18:42.122Z,98166.41
2023-05-02T14:21:09.254Z,98174.91
2023-05-02T14:23:37.352Z,98162.19
2023-05-02T14:26:04.553Z,98172.47
2023-05-02T14:28:35.529Z,98158.59
2023-05-02T14:31:03.783Z,98166.00
2023-05-02T14:33:31.036Z,98163.84
2023-05-02T14:35:58.378Z,98169.16
2023-05-02T14:38:25.904Z,98170.88
2023-05-02T14:40:53.252Z,98162.75
2023-05-02T14:43:20.379Z,98169.53
2023-05-02T14:45:48.455Z,98160.63
2023-05-02T14:48:17.808Z,98154.38
2023-05-02T14:50:45.336Z,98161.91
2023-05-02T14:53:13.276Z,98156.84
2023-05-02T14:55:41.629Z,98158.88
2023-05-02T14:58:10.583Z,98146.75
2023-05-02T15:00:38.738Z,98147.09
2023-05-02T15:03:08.081Z,98142.19
2023-05-02T15:05:37.176Z,98142.38
2023-05-02T15:08:04.701Z,98158.41
2023-05-02T15:10:35.162Z,98160.63
2023-05-02T15:13:02.546Z,98148.59
2023-05-02T15:15:30.304Z,98154.34
2023-05-02T15:17:57.801Z,98148.91
2023-05-02T15:20:25.728Z,98176.25
2023-05-02T15:22:53.065Z,98160.28
2023-05-02T15:25:20.535Z,98167.75
2023-05-02T15:27:47.617Z,98171.31
2023-05-02T15:30:17.755Z,98171.03
2023-05-02T15:32:45.147Z,98161.88
2023-05-02T15:35:12.793Z,98155.34
2023-05-02T15:37:40.449Z,98159.53
2023-05-02T15:40:08.346Z,98171.25
2023-05-02T15:42:37.292Z,98170.84
2023-05-02T15:45:04.984Z,98169.91
2023-05-02T15:47:34.241Z,98163.41
2023-05-02T15:50:02.107Z,98163.94
2023-05-02T15:52:29.969Z,98170.47
2023-05-02T15:54:57.134Z,98160.31
2023-05-02T15:57:26.507Z,98158.06
2023-05-02T15:59:53.994Z,98154.06
2023-05-02T16:02:22.276Z,98158.69
2023-05-02T16:04:49.358Z,98161.72
2023-05-02T16:07:16.920Z,98157.69
2023-05-02T16:09:44.150Z,98157.41
2023-05-02T16:12:12.181Z,98160.34
2023-05-02T16:14:39.520Z,98163.31
2023-05-02T16:17:06.896Z,98161.97
2023-05-02T16:19:34.014Z,98150.75
2023-05-02T16:22:01.846Z,98160.56
2023-05-02T16:24:28.947Z,98162.44
2023-05-02T16:26:56.381Z,98159.41
2023-05-02T16:29:23.674Z,98161.50
2023-05-02T16:31:51.512Z,98162.03
2023-05-02T16:34:18.690Z,98160.44
2023-05-02T16:36:47.143Z,98165.75
2023-05-02T16:39:14.270Z,98165.31
2023-05-02T16:41:41.644Z,98163.34
2023-05-02T16:44:08.766Z,98156.47
2023-05-02T16:46:36.678Z,98167.13
2023-05-02T16:49:03.936Z,98166.59
2023-05-02T16:51:32.127Z,98172.72
2023-05-02T16:53:59.337Z,98169.09
2023-05-02T16:56:26.828Z,98160.56
2023-05-02T16:58:54.140Z,98157.81
2023-05-02T17:01:23.443Z,98160.94
2023-05-02T17:03:50.810Z,98163.19
2023-05-02T17:06:18.549Z,98161.31
2023-05-02T17:08:45.965Z,98168.72
2023-05-02T17:11:13.724Z,98162.75
2023-05-02T17:13:41.270Z,98162.59
2023-05-02T17:16:08.822Z,98162.13
2023-05-02T17:18:36.140Z,98170.22
2023-05-02T17:21:04.041Z,98170.31
2023-05-02T17:23:31.464Z,98167.97
2023-05-02T17:26:03.016Z,98151.56
2023-05-02T17:28:30.719Z,98171.25
2023-05-02T17:31:08.095Z,98174.03
2023-05-02T17:33:35.921Z,98172.25
2023-05-02T17:36:03.098Z,98158.97
2023-05-02T17:38:31.135Z,98165.19
2023-05-02T17:40:58.223Z,98164.19
2023-05-02T17:43:25.777Z,98155.00
2023-05-02T17:45:52.939Z,98155.28
2023-05-02T17:48:20.862Z,98165.94
2023-05-02T17:50:50.119Z,98153.72
2023-05-02T17:53:17.527Z,98161.28
2023-05-02T17:55:44.892Z,98156.56
2023-05-02T17:58:12.634Z,98152.03
2023-05-02T18:00:40.633Z,98158.19
2023-05-02T18:03:08.752Z,98165.56
2023-05-02T18:05:40.327Z,98163.91
2023-05-02T18:08:07.857Z,98156.81
2023-05-02T18:10:38.656Z,98152.94
2023-05-02T18:13:06.222Z,98166.06
2023-05-02T18:15:33.332Z,98146.91
2023-05-02T18:18:01.460Z,98167.47
2023-05-02T18:20:28.812Z,98165.13
2023-05-02T18:22:59.338Z,98159.88
2023-05-02T18:25:26.653Z,98164.31
2023-05-02T18:27:54.626Z,98162.16
2023-05-02T18:30:21.941Z,98164.22
2023-05-02T18:32:49.524Z,98167.47
2023-05-02T18:35:16.802Z,98166.63
2023-05-02T18:37:44.456Z,98163.22
2023-05-02T18:40:11.865Z,98170.03
2023-05-02T18:42:39.811Z,98177.50
2023-05-02T18:45:07.964Z,98173.25
2023-05-02T18:47:36.816Z,98173.09
2023-05-02T18:50:05.422Z,98169.00
2023-05-02T18:52:32.873Z,98175.28
2023-05-02T18:55:00.277Z,98179.03
2023-05-02T18:57:28.486Z,98183.44
2023-05-02T18:59:55.630Z,98184.31
2023-05-02T19:02:23.290Z,98162.88
2023-05-02T19:04:50.605Z,98179.19
2023-05-02T19:07:18.188Z,98192.78
2023-05-02T19:09:45.292Z,98188.34
2023-05-02T19:12:13.055Z,98191.94
2023-05-02T19:14:40.574Z,98193.13
2023-05-02T19:17:08.359Z,98178.50
2023-05-02T19:19:36.165Z,98192.59
2023-05-02T19:22:04.098Z,98202.28
2023-05-02T19:24:31.312Z,98203.66
2023-05-02T19:26:59.278Z,98204.16
2023-05-02T19:29:26.441Z,98194.44
2023-05-02T19:31:53.997Z,98202.28
2023-05-02T19:34:21.212Z,98210.44
2023-05-02T19:36:48.605Z,98212.31
2023-05-02T19:39:16.743Z,98213.16
2023-05-02T19:41:44.584Z,98205.84
2023-05-02T19:44:11.845Z,98214.16
2023-05-02T19:46:39.347Z,98210.75
2023-05-02T19:49:06.550Z,98216.03
2023-05-02T19:51:35.626Z,98198.84
2023-05-02T19:54:02.696Z,98210.09
2023-05-02T19:56:32.199Z,98197.66
2023-05-02T19:58:59.875Z,98212.13
2023-05-02T20:01:29.606Z,98199.19
2023-05-02T20:03:57.084Z,98213.13
2023-05-02T20:06:24.884Z,98206.69
2023-05-02T20:08:53.129Z,98219.94
2023-05-02T20:11:20.780Z,98223.81
2023-05-02T20:13:48.087Z,98214.84
2023-05-02T20:16:15.700Z,98213.28
2023-05-02T20:18:42.949Z,98208.41
2023-05-02T20:21:10.588Z,98208.59
2023-05-02T20:23:37.764Z,98215.03
2023-05-02T20:26:05.479Z,98213.19
2023-05-02T20:28:32.862Z,98218.41
2023-05-02T20:31:01.984Z,98230.53
2023-05-02T20:33:43.739Z,98226.41
2023-05-02T20:36:15.118Z,98223.66
2023-05-02T20:38:43.191Z,98227.06
2023-05-02T20:41:15.009Z,98225.19
2023-05-02T20:43:45.435Z,98231.84
2023-05-02T20:46:14.339Z,98237.13
2023-05-02T20:48:42.073Z,98243.41
2023-05-02T20:51:09.398Z,98250.38
2023-05-02T20:53:38.034Z,98254.31
2023-05-02T20:56:05.986Z,98256.84
2023-05-02T20:58:33.860Z,98256.00
2023-05-02T21:01:01.038Z,98261.13
2023-05-02T21:03:29.083Z,98260.28
2023-05-02T21:05:59.379Z,98274.75
2023-05-02T21:08:26.825Z,98270.47
2023-05-02T21:10:54.595Z,98267.25
2023-05-02T21:13:22.591Z,98269.78
2023-05-02T21:15:49.843Z,98266.59
2023-05-02T21:18:17.721Z,98272.38
2023-05-02T21:20:44.913Z,98275.44
2023-05-02T21:23:12.396Z,98276.44
2023-05-02T21:25:39.679Z,98274.69
2023-05-02T21:28:07.037Z,98282.84
2023-05-02T21:30:35.376Z,98285.06
2023-05-02T21:33:02.520Z,98306.28
2023-05-02T21:35:34.300Z,98286.38
2023-05-02T21:38:02.686Z,98305.09
2023-05-02T21:40:31.933Z,98300.84
2023-05-02T21:42:59.078Z,98300.13
2023-05-02T21:45:26.883Z,98306.59
2023-05-02T21:47:54.639Z,98296.09
2023-05-02T21:50:21.936Z,98304.94
2023-05-02T21:52:49.165Z,98295.41
2023-05-02T21:55:16.609Z,98302.22
2023-05-02T21:57:43.711Z,98319.19
2023-05-02T22:00:13.385Z,98318.16
2023-05-02T22:02:42.134Z,98330.66
2023-05-02T22:05:09.490Z,98316.06
2023-05-02T22:07:37.357Z,98333.09
2023-05-02T22:10:05.271Z,98325.63
2023-05-02T22:12:32.463Z,98333.44
2023-05-02T22:14:59.652Z,98337.00
2023-05-02T22:17:26.858Z,98313.53
2023-05-02T22:19:54.044Z,98317.78
2023-05-02T22:22:21.253Z,98333.22
2023-05-02T22:24:48.370Z,98334.09
2023-05-02T22:27:15.610Z,98319.00
2023-05-02T22:29:42.700Z,98332.19
2023-05-02T22:32:10.002Z,98324.03
2023-05-02T22:34:37.413Z,98311.34
2023-05-02T22:37:04.609Z,98325.03
2023-05-02T22:39:31.922Z,98312.50
2023-05-02T22:42:00.185Z,98329.34
2023-05-02T22:44:27.782Z,98328.47
2023-05-02T22:46:55.228Z,98328.50
2023-05-02T22:49:22.383Z,98323.53
2023-05-02T22:51:49.940Z,98324.06
2023-05-02T22:54:17.319Z,98335.75
2023-05-02T22:56:44.492Z,98330.50
2023-05-02T22:59:11.587Z,98331.06
2023-05-02T23:01:38.754Z,98336.88
2023-05-02T23:04:06.027Z,98328.94
2023-05-02T23:06:33.291Z,98324.00
2023-05-02T23:09:00.438Z,98330.97
2023-05-02T23:11:27.717Z,98324.31
2023-05-02T23:13:54.920Z,98327.41
2023-05-02T23:16:22.113Z,98328.81
2023-05-02T23:18:49.831Z,98326.28
2023-05-02T23:21:17.617Z,98333.72
2023-05-02T23:23:44.674Z,98327.88
2023-05-02T23:26:12.588Z,98332.53
2023-05-02T23:28:40.313Z,98333.47
2023-05-02T23:31:08.280Z,98340.63
2023-05-02T23:33:36.788Z,98332.78
2023-05-02T23:36:06.986Z,98338.16
2023-05-02T23:38:36.390Z,98327.44
2023-05-02T23:41:04.548Z,98327.66
2023-05-02T23:43:31.699Z,98334.13
2023-05-02T23:45:59.472Z,98326.50
2023-05-02T23:48:26.880Z,98325.72
2023-05-02T23:50:54.439Z,98317.94
2023-05-02T23:53:21.487Z,98322.03
2023-05-02T23:55:49.119Z,98318.31
2023-05-02T23:58:16.158Z,98307.47
